createdAt,value
2019-03-16T00:00:32.503Z,99066.77
2019-03-16T00:02:58.665Z,99077.11
2019-03-16T00:05:24.845Z,99073.77
2019-03-16T00:07:51.005Z,99068.12
2019-03-16T00:10:17.262Z,99061.54
2019-03-16T00:12:43.462Z,99062.69
2019-03-16T00:15:09.720Z,99061.28
2019-03-16T00:17:35.879Z,99065.95
2019-03-16T00:20:04.381Z,99069.69
2019-03-16T00:22:30.588Z,99058.52
2019-03-16T00:24:56.851Z,99059.95
2019-03-16T00:27:23.031Z,99061.44
2019-03-16T00:29:49.194Z,99054.70
2019-03-16T00:32:15.368Z,99055.44
2019-03-16T00:34:41.564Z,99055.66
2019-03-16T00:37:07.720Z,99054.39
2019-03-16T00:39:33.984Z,99058.17
2019-03-16T00:42:00.174Z,99050.91
2019-03-16T00:44:26.448Z,99051.47
2019-03-16T00:46:52.607Z,99049.18
2019-03-16T00:49:18.796Z,99053.95
2019-03-16T00:51:44.952Z,99057.86
2019-03-16T00:54:11.220Z,99059.77
2019-03-16T00:56:37.417Z,99057.47
2019-03-16T00:59:03.571Z,99059.11
2019-03-16T01:01:29.764Z,99060.28
2019-03-16T01:03:55.963Z,99057.33
2019-03-16T01:06:22.119Z,99044.20
2019-03-16T01:08:48.275Z,99047.50
2019-03-16T01:11:14.464Z,99050.44
2019-03-16T01:13:40.620Z,99043.08
2019-03-16T01:16:06.888Z,99047.30
2019-03-16T01:18:33.075Z,99043.59
2019-03-16T01:20:59.236Z,99042.91
2019-03-16T01:23:26.302Z,99039.20
2019-03-16T01:25:52.503Z,99046.03
2019-03-16T01:28:18.667Z,99047.08
2019-03-16T01:30:44.828Z,99044.20
2019-03-16T01:33:11.040Z,99056.30
2019-03-16T01:35:37.302Z,99044.27
2019-03-16T01:38:03.545Z,99049.37
2019-03-16T01:40:29.743Z,99037.38
2019-03-16T01:42:56.007Z,99039.22
2019-03-16T01:45:22.159Z,99036.59
2019-03-16T01:47:48.344Z,99033.00
2019-03-16T01:50:14.507Z,99036.57
2019-03-16T01:52:40.671Z,99039.64
2019-03-16T01:55:07.757Z,99042.60
2019-03-16T01:57:33.919Z,99046.06
2019-03-16T02:00:00.074Z,99051.48
2019-03-16T02:02:26.269Z,99053.00
2019-03-16T02:04:52.533Z,99051.89
2019-03-16T02:07:18.702Z,99041.08
2019-03-16T02:09:44.986Z,99042.91
2019-03-16T02:12:11.145Z,99046.97
2019-03-16T02:14:37.338Z,99043.26
2019-03-16T02:17:03.531Z,99041.90
2019-03-16T02:19:29.693Z,99052.05
2019-03-16T02:21:55.870Z,99048.52
2019-03-16T02:24:22.198Z,99051.59
2019-03-16T02:26:48.346Z,99045.47
2019-03-16T02:29:14.503Z,99039.89
2019-03-16T02:31:40.690Z,99037.08
2019-03-16T02:34:06.857Z,99040.70
2019-03-16T02:36:33.007Z,99046.70
2019-03-16T02:38:59.198Z,99043.23
2019-03-16T02:41:25.352Z,99031.67
2019-03-16T02:43:51.507Z,99042.48
2019-03-16T02:46:17.684Z,99047.61
2019-03-16T02:48:43.845Z,99037.50
2019-03-16T02:51:10.102Z,99041.92
2019-03-16T02:53:36.393Z,99048.26
2019-03-16T02:56:02.544Z,99049.37
2019-03-16T02:58:29.097Z,99060.08
2019-03-16T03:00:55.294Z,99051.99
2019-03-16T03:03:29.256Z,99051.38
2019-03-16T03:05:49.521Z,99041.13
2019-03-16T03:08:15.700Z,99034.95
2019-03-16T03:10:41.872Z,99036.84
2019-03-16T03:13:08.022Z,99034.38
2019-03-16T03:15:34.212Z,99030.09
2019-03-16T03:18:00.375Z,99029.02
2019-03-16T03:20:26.546Z,99025.28
2019-03-16T03:22:52.748Z,99025.73
2019-03-16T03:25:19.896Z,99033.52
2019-03-16T03:27:46.041Z,99022.59
2019-03-16T03:30:12.723Z,99025.23
2019-03-16T03:32:38.983Z,99027.53
2019-03-16T03:35:06.755Z,99028.18
2019-03-16T03:37:32.936Z,99028.02
2019-03-16T03:39:59.093Z,99027.98
2019-03-16T03:42:25.256Z,99033.38
2019-03-16T03:44:51.552Z,99032.23
2019-03-16T03:47:17.710Z,99034.09
2019-03-16T03:49:43.867Z,99032.17
2019-03-16T03:52:10.060Z,99039.07
2019-03-16T03:54:36.219Z,99035.64
2019-03-16T03:57:03.086Z,99041.98
2019-03-16T03:59:29.257Z,99037.22
2019-03-16T04:01:55.435Z,99035.23
2019-03-16T04:04:21.590Z,99029.25
2019-03-16T04:06:47.890Z,99018.58
2019-03-16T04:09:14.050Z,99018.53
2019-03-16T04:11:40.301Z,99019.17
2019-03-16T04:14:06.498Z,99023.63
2019-03-16T04:16:32.755Z,99027.91
2019-03-16T04:18:58.918Z,99011.91
2019-03-16T04:21:25.234Z,98999.11
2019-03-16T04:23:51.502Z,99001.59
2019-03-16T04:26:17.745Z,98987.34
2019-03-16T04:28:43.947Z,98993.17
2019-03-16T04:31:10.240Z,99004.64
2019-03-16T04:33:36.388Z,98980.53
2019-03-16T04:36:02.592Z,98991.24
2019-03-16T04:38:28.730Z,98989.01
2019-03-16T04:40:54.897Z,98993.25
2019-03-16T04:43:21.226Z,98982.69
2019-03-16T04:45:47.478Z,98985.86
2019-03-16T04:48:13.636Z,98995.47
2019-03-16T04:50:39.817Z,99000.94
2019-03-16T04:53:06.086Z,99005.94
2019-03-16T04:55:32.249Z,99014.27
2019-03-16T04:57:58.440Z,99015.11
2019-03-16T05:00:24.596Z,99018.39
2019-03-16T05:02:50.868Z,99022.23
2019-03-16T05:05:17.067Z,99021.22
2019-03-16T05:07:43.225Z,99012.57
2019-03-16T05:10:10.092Z,99014.95
2019-03-16T05:12:36.297Z,99028.13
2019-03-16T05:15:04.752Z,99030.93
2019-03-16T05:17:30.912Z,99027.61
2019-03-16T05:19:57.536Z,99028.95
2019-03-16T05:22:23.816Z,99017.54
2019-03-16T05:24:49.982Z,99024.47
2019-03-16T05:27:16.167Z,99029.52
2019-03-16T05:29:42.319Z,99032.80
2019-03-16T05:32:08.496Z,99035.82
2019-03-16T05:34:34.681Z,99039.33
2019-03-16T05:37:00.841Z,99035.73
2019-03-16T05:39:27.002Z,99047.55
2019-03-16T05:41:53.407Z,99048.48
2019-03-16T05:44:19.661Z,99040.30
2019-03-16T05:46:45.828Z,99045.09
2019-03-16T05:49:12.022Z,99026.17
2019-03-16T05:51:38.283Z,99042.28
2019-03-16T05:54:04.547Z,99054.63
2019-03-16T05:56:30.749Z,99048.13
2019-03-16T05:58:56.908Z,99046.27
2019-03-16T06:01:23.085Z,99056.49
2019-03-16T06:03:49.268Z,99062.43
2019-03-16T06:06:15.434Z,99057.56
2019-03-16T06:08:41.628Z,99050.38
2019-03-16T06:11:07.815Z,99054.25
2019-03-16T06:13:33.985Z,99056.86
2019-03-16T06:16:00.148Z,99051.72
2019-03-16T06:18:26.346Z,99055.55
2019-03-16T06:20:52.505Z,99049.58
2019-03-16T06:23:18.667Z,99052.78
2019-03-16T06:25:45.258Z,99039.20
2019-03-16T06:28:12.404Z,99047.63
2019-03-16T06:30:38.671Z,99054.14
2019-03-16T06:33:04.863Z,99046.05
2019-03-16T06:35:31.027Z,99034.05
2019-03-16T06:37:57.310Z,99023.71
2019-03-16T06:40:23.613Z,99019.33
2019-03-16T06:42:49.787Z,99012.94
2019-03-16T06:45:15.957Z,99004.81
2019-03-16T06:47:42.157Z,98997.25
2019-03-16T06:50:14.731Z,98990.70
2019-03-16T06:52:40.891Z,98996.70
2019-03-16T06:55:07.191Z,98998.08
2019-03-16T06:57:33.352Z,99000.44
2019-03-16T06:59:59.523Z,98997.16
2019-03-16T07:02:25.722Z,99008.67
2019-03-16T07:04:51.885Z,99012.67
2019-03-16T07:07:18.045Z,99009.92
2019-03-16T07:09:44.245Z,99009.12
2019-03-16T07:12:10.410Z,99016.20
2019-03-16T07:14:36.577Z,99012.16
2019-03-16T07:17:02.778Z,99015.89
2019-03-16T07:19:28.927Z,99010.53
2019-03-16T07:21:55.190Z,99015.23
2019-03-16T07:24:21.482Z,99010.45
2019-03-16T07:26:47.636Z,99007.56
2019-03-16T07:29:14.230Z,98999.16
2019-03-16T07:31:40.431Z,98996.16
2019-03-16T07:34:06.604Z,98987.78
2019-03-16T07:36:35.893Z,98990.79
2019-03-16T07:39:00.946Z,98992.34
2019-03-16T07:41:27.101Z,98986.15
2019-03-16T07:43:53.262Z,98979.62
2019-03-16T07:46:19.470Z,98977.75
2019-03-16T07:48:45.622Z,98982.55
2019-03-16T07:51:11.788Z,98965.97
2019-03-16T07:53:37.980Z,98962.13
2019-03-16T07:56:04.150Z,98963.74
2019-03-16T07:58:30.308Z,98941.61
2019-03-16T08:00:56.596Z,98941.50
2019-03-16T08:03:22.759Z,98938.60
2019-03-16T08:05:48.910Z,98932.00
2019-03-16T08:08:15.201Z,98932.11
2019-03-16T08:10:41.359Z,98941.93
2019-03-16T08:13:07.514Z,98951.92
2019-03-16T08:15:33.699Z,98952.91
2019-03-16T08:17:59.860Z,98949.71
2019-03-16T08:20:26.016Z,98962.30
2019-03-16T08:22:52.217Z,98953.17
2019-03-16T08:25:18.375Z,98942.61
2019-03-16T08:27:53.893Z,98936.55
2019-03-16T08:30:12.632Z,98942.13
2019-03-16T08:32:38.782Z,98938.69
2019-03-16T08:35:05.546Z,98939.44
2019-03-16T08:37:31.753Z,98924.97
2019-03-16T08:39:57.910Z,98924.45
2019-03-16T08:42:24.081Z,98924.36
2019-03-16T08:44:50.276Z,98919.90
2019-03-16T08:47:16.431Z,98912.95
2019-03-16T08:49:42.594Z,98907.36
2019-03-16T08:52:08.785Z,98906.55
2019-03-16T08:54:34.935Z,98908.19
2019-03-16T08:57:01.199Z,98911.05
2019-03-16T08:59:27.493Z,98908.61
2019-03-16T09:01:53.645Z,98899.61
2019-03-16T09:04:19.808Z,98888.03
2019-03-16T09:06:46.108Z,98878.92
2019-03-16T09:09:12.260Z,98870.81
2019-03-16T09:11:38.416Z,98870.42
2019-03-16T09:14:04.617Z,98863.02
2019-03-16T09:16:30.769Z,98871.63
2019-03-16T09:18:56.918Z,98865.48
2019-03-16T09:21:23.109Z,98865.91
2019-03-16T09:23:49.373Z,98855.28
2019-03-16T09:26:15.530Z,98849.38
2019-03-16T09:28:41.725Z,98855.47
2019-03-16T09:31:08.027Z,98858.23
2019-03-16T09:33:34.180Z,98863.65
2019-03-16T09:36:00.373Z,98850.33
2019-03-16T09:38:26.526Z,98847.91
2019-03-16T09:40:52.698Z,98863.14
2019-03-16T09:43:18.883Z,98857.42
2019-03-16T09:45:45.040Z,98845.23
2019-03-16T09:48:11.201Z,98847.97
2019-03-16T09:50:37.389Z,98831.17
2019-03-16T09:53:03.548Z,98835.99
2019-03-16T09:55:29.708Z,98849.43
2019-03-16T09:57:56.016Z,98843.59
2019-03-16T10:00:22.277Z,98839.27
2019-03-16T10:02:48.443Z,98822.52
2019-03-16T10:05:14.620Z,98822.86
2019-03-16T10:07:40.878Z,98821.45
2019-03-16T10:10:11.631Z,98848.84
2019-03-16T10:12:37.813Z,98833.02
2019-03-16T10:15:08.727Z,98823.69
2019-03-16T10:17:34.891Z,98832.35
2019-03-16T10:20:01.072Z,98827.23
2019-03-16T10:22:27.258Z,98826.80
2019-03-16T10:24:53.392Z,98813.07
2019-03-16T10:27:19.580Z,98816.52
2019-03-16T10:29:45.983Z,98817.05
2019-03-16T10:32:13.221Z,98802.08
2019-03-16T10:34:39.414Z,98802.14
2019-03-16T10:37:05.570Z,98794.77
2019-03-16T10:39:31.738Z,98788.10
2019-03-16T10:41:57.927Z,98785.87
2019-03-16T10:44:24.085Z,98769.16
2019-03-16T10:46:50.240Z,98782.19
2019-03-16T10:49:16.433Z,98773.62
2019-03-16T10:51:42.584Z,98771.34
2019-03-16T10:54:08.745Z,98771.05
2019-03-16T10:56:34.930Z,98762.50
2019-03-16T10:59:01.088Z,98763.92
2019-03-16T11:01:27.352Z,98750.79
2019-03-16T11:03:53.535Z,98757.38
2019-03-16T11:06:19.693Z,98758.37
2019-03-16T11:08:45.855Z,98747.95
2019-03-16T11:11:12.048Z,98761.43
2019-03-16T11:13:38.203Z,98754.92
2019-03-16T11:16:04.472Z,98756.48
2019-03-16T11:18:30.674Z,98740.20
2019-03-16T11:20:56.832Z,98759.52
2019-03-16T11:23:22.984Z,98757.97
2019-03-16T11:25:49.183Z,98731.68
2019-03-16T11:28:15.336Z,98742.06
2019-03-16T11:30:41.501Z,98729.11
2019-03-16T11:33:07.856Z,98740.47
2019-03-16T11:35:34.002Z,98740.52
2019-03-16T11:38:00.156Z,98734.64
2019-03-16T11:40:26.360Z,98725.19
2019-03-16T11:42:52.534Z,98706.97
2019-03-16T11:45:18.831Z,98717.02
2019-03-16T11:47:45.021Z,98713.42
2019-03-16T11:50:11.882Z,98727.58
2019-03-16T11:52:38.053Z,98730.02
2019-03-16T11:55:07.058Z,98733.83
2019-03-16T11:57:33.217Z,98729.84
2019-03-16T11:59:59.378Z,98722.27
2019-03-16T12:02:25.655Z,98731.65
2019-03-16T12:04:51.815Z,98734.30
2019-03-16T12:07:18.081Z,98747.45
2019-03-16T12:09:44.278Z,98724.61
2019-03-16T12:12:10.435Z,98746.70
2019-03-16T12:14:36.592Z,98750.35
2019-03-16T12:17:02.781Z,98748.66
2019-03-16T12:19:28.940Z,98750.11
2019-03-16T12:21:55.102Z,98738.87
2019-03-16T12:24:21.291Z,98750.58
2019-03-16T12:26:47.448Z,98748.94
2019-03-16T12:29:13.606Z,98739.28
2019-03-16T12:31:39.803Z,98738.00
2019-03-16T12:34:06.122Z,98731.98
2019-03-16T12:36:32.392Z,98725.17
2019-03-16T12:38:58.590Z,98706.06
2019-03-16T12:41:24.746Z,98725.11
2019-03-16T12:43:50.903Z,98729.23
2019-03-16T12:46:17.096Z,98730.52
2019-03-16T12:48:43.251Z,98728.94
2019-03-16T12:51:09.520Z,98713.53
2019-03-16T12:53:35.709Z,98709.12
2019-03-16T12:56:01.871Z,98707.20
2019-03-16T12:58:28.025Z,98721.59
2019-03-16T13:00:54.215Z,98718.80
2019-03-16T13:03:20.393Z,98721.61
2019-03-16T13:05:46.642Z,98727.47
2019-03-16T13:08:12.824Z,98718.34
2019-03-16T13:10:38.980Z,98730.70
2019-03-16T13:13:05.137Z,98729.66
2019-03-16T13:15:31.327Z,98722.06
2019-03-16T13:17:57.479Z,98733.92
2019-03-16T13:20:23.640Z,98735.36
2019-03-16T13:22:49.831Z,98739.30
2019-03-16T13:25:16.103Z,98747.27
2019-03-16T13:27:42.271Z,98743.87
2019-03-16T13:30:11.377Z,98740.95
2019-03-16T13:32:37.540Z,98753.07
2019-03-16T13:35:05.914Z,98743.11
2019-03-16T13:37:32.108Z,98750.84
2019-03-16T13:39:58.262Z,98747.89
2019-03-16T13:42:24.423Z,98737.97
2019-03-16T13:44:50.620Z,98741.58
2019-03-16T13:47:16.782Z,98728.91
2019-03-16T13:49:43.038Z,98735.75
2019-03-16T13:52:09.224Z,98744.27
2019-03-16T13:54:35.583Z,98740.83
2019-03-16T13:57:01.731Z,98745.06
2019-03-16T13:59:27.922Z,98733.92
2019-03-16T14:01:54.081Z,98727.89
2019-03-16T14:04:20.337Z,98735.84
2019-03-16T14:06:46.533Z,98736.08
2019-03-16T14:09:12.693Z,98736.56
2019-03-16T14:11:41.185Z,98745.05
2019-03-16T14:14:06.941Z,98741.36
2019-03-16T14:16:33.101Z,98746.78
2019-03-16T14:18:59.460Z,98749.81
2019-03-16T14:21:25.751Z,98748.24
2019-03-16T14:23:51.926Z,98758.52
2019-03-16T14:26:18.079Z,98756.06
2019-03-16T14:28:44.266Z,98752.73
2019-03-16T14:31:10.424Z,98752.95
2019-03-16T14:33:36.574Z,98759.40
2019-03-16T14:36:03.098Z,98759.73
2019-03-16T14:38:29.281Z,98742.17
2019-03-16T14:40:55.436Z,98756.03
2019-03-16T14:43:21.632Z,98766.30
2019-03-16T14:45:49.148Z,98763.34
2019-03-16T14:48:15.451Z,98756.28
2019-03-16T14:50:41.638Z,98761.80
2019-03-16T14:53:07.794Z,98777.14
2019-03-16T14:55:33.951Z,98777.69
2019-03-16T14:58:00.134Z,98782.41
2019-03-16T15:00:37.799Z,98772.84
2019-03-16T15:02:54.353Z,98786.45
2019-03-16T15:05:20.654Z,98781.65
2019-03-16T15:07:49.522Z,98775.72
2019-03-16T15:10:15.980Z,98782.08
2019-03-16T15:12:42.172Z,98774.95
2019-03-16T15:15:11.434Z,98783.83
2019-03-16T15:17:37.594Z,98791.50
2019-03-16T15:20:06.586Z,98791.31
2019-03-16T15:22:32.753Z,98798.88
2019-03-16T15:24:58.922Z,98801.34
2019-03-16T15:27:25.228Z,98803.59
2019-03-16T15:29:51.391Z,98791.50
2019-03-16T15:32:17.552Z,98799.89
2019-03-16T15:34:43.744Z,98804.72
2019-03-16T15:37:10.053Z,98799.19
2019-03-16T15:39:36.253Z,98807.89
2019-03-16T15:42:02.409Z,98811.66
2019-03-16T15:44:28.570Z,98809.16
2019-03-16T15:46:54.723Z,98801.38
2019-03-16T15:49:20.923Z,98824.34
2019-03-16T15:51:47.170Z,98804.86
2019-03-16T15:54:13.336Z,98826.28
2019-03-16T15:56:39.524Z,98827.13
2019-03-16T15:59:05.683Z,98819.06
2019-03-16T16:01:31.851Z,98821.92
2019-03-16T16:03:58.037Z,98833.89
2019-03-16T16:06:24.296Z,98837.63
2019-03-16T16:08:50.558Z,98843.69
2019-03-16T16:11:16.771Z,98851.34
2019-03-16T16:13:43.021Z,98853.52
2019-03-16T16:16:09.195Z,98848.44
2019-03-16T16:18:35.370Z,98861.23
2019-03-16T16:21:01.790Z,98872.79
2019-03-16T16:23:27.947Z,98878.02
2019-03-16T16:25:54.132Z,98880.16
2019-03-16T16:28:20.404Z,98889.11
2019-03-16T16:30:47.079Z,98882.36
2019-03-16T16:33:13.423Z,98894.31
2019-03-16T16:35:39.592Z,98893.98
2019-03-16T16:38:05.831Z,98903.62
2019-03-16T16:40:32.010Z,98908.99
2019-03-16T16:42:58.163Z,98894.31
2019-03-16T16:45:24.439Z,98909.73
2019-03-16T16:47:50.630Z,98916.63
2019-03-16T16:50:38.338Z,98919.57
2019-03-16T16:53:04.566Z,98917.16
2019-03-16T16:55:30.729Z,98933.77
2019-03-16T16:57:56.887Z,98943.72
2019-03-16T17:00:24.791Z,98949.45
2019-03-16T17:02:51.120Z,98951.59
2019-03-16T17:05:17.319Z,98949.31
2019-03-16T17:07:43.710Z,98939.01
2019-03-16T17:10:14.890Z,98941.16
2019-03-16T17:12:43.804Z,98937.79
2019-03-16T17:15:14.699Z,98949.77
2019-03-16T17:17:40.959Z,98953.05
2019-03-16T17:20:09.930Z,98959.82
2019-03-16T17:22:37.445Z,98965.02
2019-03-16T17:25:06.188Z,98975.53
2019-03-16T17:27:32.456Z,98974.03
2019-03-16T17:29:58.655Z,98977.28
2019-03-16T17:32:24.823Z,98992.02
2019-03-16T17:34:50.974Z,98987.31
2019-03-16T17:37:17.616Z,98997.61
2019-03-16T17:39:44.933Z,99002.34
2019-03-16T17:42:11.891Z,98997.55
2019-03-16T17:44:38.080Z,98996.93
2019-03-16T17:47:04.237Z,98997.02
2019-03-16T17:49:30.403Z,98999.55
2019-03-16T17:51:58.129Z,99018.06
2019-03-16T17:54:24.546Z,99017.44
2019-03-16T17:56:50.700Z,99033.52
2019-03-16T17:59:16.891Z,99034.78
2019-03-16T18:01:54.312Z,99038.50
2019-03-16T18:04:11.209Z,99042.47
2019-03-16T18:06:37.412Z,99043.79
2019-03-16T18:09:05.664Z,99045.36
2019-03-16T18:11:31.830Z,99049.80
2019-03-16T18:13:58.015Z,99054.81
2019-03-16T18:16:24.272Z,99058.06
2019-03-16T18:18:50.431Z,99074.14
2019-03-16T18:21:16.635Z,99060.28
2019-03-16T18:23:42.899Z,99071.73
2019-03-16T18:26:09.295Z,99064.48
2019-03-16T18:28:36.460Z,99054.91
2019-03-16T18:31:02.626Z,99063.58
2019-03-16T18:33:28.786Z,99069.47
2019-03-16T18:35:54.970Z,99070.36
2019-03-16T18:38:21.128Z,99076.70
2019-03-16T18:40:48.285Z,99079.60
2019-03-16T18:43:14.490Z,99078.73
2019-03-16T18:45:40.647Z,99075.50
2019-03-16T18:48:06.795Z,99076.98
2019-03-16T18:50:32.991Z,99084.80
2019-03-16T18:52:59.155Z,99089.95
2019-03-16T18:55:25.316Z,99101.10
2019-03-16T18:57:51.638Z,99116.37
2019-03-16T19:00:18.292Z,99112.48
2019-03-16T19:02:44.444Z,99111.54
2019-03-16T19:05:10.642Z,99110.77
2019-03-16T19:07:36.804Z,99103.78
2019-03-16T19:10:06.477Z,99112.75
2019-03-16T19:12:32.675Z,99106.35
2019-03-16T19:14:58.826Z,99103.06
2019-03-16T19:17:24.990Z,99112.16
2019-03-16T19:19:51.205Z,99112.17
2019-03-16T19:22:17.373Z,99108.85
2019-03-16T19:24:43.534Z,99114.39
2019-03-16T19:27:09.746Z,99123.97
2019-03-16T19:29:35.912Z,99114.16
2019-03-16T19:32:02.366Z,99121.39
2019-03-16T19:34:28.672Z,99125.89
2019-03-16T19:36:54.842Z,99123.73
2019-03-16T19:39:20.992Z,99128.75
2019-03-16T19:41:48.111Z,99125.31
2019-03-16T19:44:14.267Z,99128.63
2019-03-16T19:46:40.431Z,99138.23
2019-03-16T19:49:07.157Z,99136.81
2019-03-16T19:51:33.512Z,99133.26
2019-03-16T19:53:59.672Z,99153.58
2019-03-16T19:56:25.881Z,99150.59
2019-03-16T19:59:00.709Z,99139.08
2019-03-16T20:01:20.193Z,99158.21
2019-03-16T20:03:46.393Z,99173.89
2019-03-16T20:06:24.855Z,99159.91
2019-03-16T20:08:40.609Z,99161.63
2019-03-16T20:11:07.390Z,99171.42
2019-03-16T20:13:33.704Z,99160.95
2019-03-16T20:15:59.857Z,99164.05
2019-03-16T20:18:26.046Z,99170.31
2019-03-16T20:20:52.203Z,99184.86
2019-03-16T20:23:23.804Z,99184.59
2019-03-16T20:25:50.101Z,99188.70
2019-03-16T20:28:16.255Z,99206.93
2019-03-16T20:30:42.521Z,99204.89
2019-03-16T20:33:08.716Z,99204.48
2019-03-16T20:35:34.874Z,99213.11
2019-03-16T20:38:01.022Z,99204.53
2019-03-16T20:40:27.246Z,99208.72
2019-03-16T20:42:53.507Z,99199.60
2019-03-16T20:45:19.849Z,99202.89
2019-03-16T20:47:46.158Z,99207.30
2019-03-16T20:50:14.110Z,99214.91
2019-03-16T20:52:40.272Z,99189.56
2019-03-16T20:55:07.680Z,99197.77
2019-03-16T20:57:33.832Z,99205.18
2019-03-16T20:59:59.989Z,99215.87
2019-03-16T21:02:26.181Z,99215.45
2019-03-16T21:04:52.336Z,99214.42
2019-03-16T21:07:18.492Z,99218.28
2019-03-16T21:09:44.685Z,99219.97
2019-03-16T21:12:10.841Z,99220.39
2019-03-16T21:14:36.994Z,99218.60
2019-03-16T21:17:03.191Z,99221.75
2019-03-16T21:19:29.446Z,99223.80
2019-03-16T21:21:55.607Z,99230.01
2019-03-16T21:24:21.808Z,99230.70
2019-03-16T21:26:52.740Z,99230.89
2019-03-16T21:29:16.024Z,99227.60
2019-03-16T21:31:42.204Z,99230.13
2019-03-16T21:34:08.380Z,99221.36
2019-03-16T21:36:41.434Z,99223.19
2019-03-16T21:39:05.732Z,99241.63
2019-03-16T21:41:31.888Z,99227.64
2019-03-16T21:43:58.922Z,99241.08
2019-03-16T21:46:25.226Z,99243.58
2019-03-16T21:48:51.267Z,99248.64
2019-03-16T21:51:17.428Z,99247.14
2019-03-16T21:53:43.616Z,99251.53
2019-03-16T21:56:09.775Z,99249.61
2019-03-16T21:58:35.935Z,99249.86
2019-03-16T22:01:02.126Z,99253.17
2019-03-16T22:03:28.281Z,99260.58
2019-03-16T22:05:54.431Z,99251.84
2019-03-16T22:08:21.737Z,99260.02
2019-03-16T22:10:48.017Z,99262.41
2019-03-16T22:13:14.217Z,99265.14
2019-03-16T22:15:41.367Z,99271.25
2019-03-16T22:18:07.528Z,99259.41
2019-03-16T22:20:33.684Z,99267.81
2019-03-16T22:22:59.870Z,99270.17
2019-03-16T22:25:26.042Z,99284.98
2019-03-16T22:27:52.255Z,99281.97
2019-03-16T22:30:18.489Z,99286.67
2019-03-16T22:32:45.120Z,99291.91
2019-03-16T22:35:11.279Z,99298.48
2019-03-16T22:37:37.473Z,99295.44
2019-03-16T22:40:11.436Z,99304.19
2019-03-16T22:42:37.587Z,99307.19
2019-03-16T22:45:09.000Z,99309.28
2019-03-16T22:47:35.160Z,99308.49
2019-03-16T22:50:01.417Z,99309.27
2019-03-16T22:52:27.612Z,99309.40
2019-03-16T22:54:53.771Z,99300.61
2019-03-16T22:57:19.956Z,99304.18
2019-03-16T22:59:46.225Z,99312.45
2019-03-16T23:02:12.382Z,99316.22
2019-03-16T23:04:38.543Z,99322.67
2019-03-16T23:07:04.724Z,99327.64
2019-03-16T23:09:30.881Z,99328.15
2019-03-16T23:11:57.039Z,99335.48
2019-03-16T23:14:23.239Z,99341.03
2019-03-16T23:16:49.401Z,99350.70
2019-03-16T23:19:15.554Z,99359.06
2019-03-16T23:21:41.748Z,99362.80
2019-03-16T23:24:07.892Z,99364.55
2019-03-16T23:26:38.776Z,99368.48
2019-03-16T23:29:02.256Z,99378.88
2019-03-16T23:31:28.410Z,99378.38
2019-03-16T23:33:54.560Z,99380.82
2019-03-16T23:36:20.762Z,99376.89
2019-03-16T23:38:46.927Z,99375.27
2019-03-16T23:41:13.082Z,99371.04
2019-03-16T23:43:39.272Z,99365.34
2019-03-16T23:46:05.485Z,99367.55
2019-03-16T23:48:31.637Z,99361.75
2019-03-16T23:50:57.825Z,99355.11
2019-03-16T23:53:24.079Z,99353.52
2019-03-16T23:55:50.230Z,99361.02
2019-03-16T23:58:16.545Z,99357.20
